Time;durP1;ratioP1;P1;durP2;ratioP2;P2;SDS_P1;SDS_P2;PMS_P1;PMS_P2;Temp;Humidity;BMP_temperature;BMP_pressure;BME280_temperature;BME280_humidity;BME280_pressure;Samples;Min_cycle;Max_cycle;Signal;HPM_P1;HPM_P2
2021/07/19 00:00:57;;;;;;;8.15;5.80;;;;;;;18.10;65.10;99818.32;254002;1104;116188;-67
2021/07/19 00:06:03;;;;;;;9.18;5.48;;;;;;;17.84;65.16;99815.82;254178;1104;115496;-68
2021/07/19 00:11:08;;;;;;;7.83;6.18;;;;;;;17.63;65.60;99814.32;254101;1104;115518;-67
2021/07/19 00:16:13;;;;;;;5.90;5.40;;;;;;;17.58;66.22;99816.23;254032;1104;115308;-67
2021/07/19 00:21:18;;;;;;;8.65;6.48;;;;;;;17.54;66.52;99809.78;254583;1104;115726;-67
2021/07/19 00:26:23;;;;;;;7.50;4.80;;;;;;;17.51;66.93;99811.14;255604;1104;115614;-67
2021/07/19 00:31:32;;;;;;;5.48;4.93;;;;;;;17.50;67.13;99809.53;253753;1104;115811;-67
2021/07/19 00:36:38;;;;;;;10.67;5.93;;;;;;;17.51;67.22;99805.75;257204;1104;116129;-68
2021/07/19 00:41:43;;;;;;;6.78;5.30;;;;;;;17.41;67.05;99811.22;254179;1104;115857;-68
2021/07/19 00:46:52;;;;;;;15.60;6.15;;;;;;;17.30;67.38;99815.04;257128;1104;115511;-68
2021/07/19 00:51:57;;;;;;;8.13;5.23;;;;;;;17.12;67.08;99811.87;257155;1104;114890;-67
2021/07/19 00:57:04;;;;;;;6.37;5.77;;;;;;;16.89;66.84;99822.46;257341;1104;115038;-67
2021/07/19 01:02:11;;;;;;;6.60;5.98;;;;;;;16.63;67.08;99821.69;257248;1104;114655;-66
2021/07/19 01:07:17;;;;;;;8.08;6.50;;;;;;;16.53;67.79;99816.31;257106;1104;114764;-67
2021/07/19 01:12:22;;;;;;;10.18;5.78;;;;;;;16.53;67.89;99814.44;254400;1099;115390;-66
2021/07/19 01:17:26;;;;;;;7.93;6.25;;;;;;;16.52;68.42;99810.13;257165;1104;116379;-66
2021/07/19 01:23:00;;;;;;;8.70;5.83;;;;;;;16.51;68.15;99814.70;255685;1104;115004;-66
2021/07/19 01:28:25;;;;;;;8.63;6.50;;;;;;;16.50;68.61;99820.39;256332;1104;115153;-66
2021/07/19 01:33:32;;;;;;;7.57;6.37;;;;;;;16.46;68.95;99822.00;256119;1104;140754;-66
2021/07/19 01:38:38;;;;;;;7.03;6.28;;;;;;;16.45;68.76;99820.39;256570;1100;115399;-68
2021/07/19 01:43:42;;;;;;;7.63;6.85;;;;;;;16.41;69.36;99820.13;255625;1104;115450;-66
2021/07/19 01:48:49;;;;;;;15.17;7.47;;;;;;;16.35;69.17;99821.20;254851;1104;115702;-66
2021/07/19 01:53:55;;;;;;;8.08;4.98;;;;;;;16.26;69.30;99816.63;255512;1104;116094;-66
2021/07/19 01:58:59;;;;;;;7.83;6.50;;;;;;;16.15;69.62;99821.22;254798;1104;115366;-65
2021/07/19 02:04:04;;;;;;;13.80;6.05;;;;;;;16.05;69.34;99818.52;254905;1100;116729;-66
2021/07/19 02:09:11;;;;;;;8.08;5.93;;;;;;;15.98;69.51;99821.46;256498;1104;115683;-66
2021/07/19 02:14:18;;;;;;;8.78;6.85;;;;;;;15.96;69.88;99823.61;254333;1104;115926;-66
2021/07/19 02:19:25;;;;;;;8.43;7.20;;;;;;;15.92;70.11;99832.47;256069;1104;116421;-66
2021/07/19 02:24:33;;;;;;;6.33;5.70;;;;;;;15.81;70.41;99834.36;254549;1104;115459;-66
2021/07/19 02:29:38;;;;;;;8.25;6.63;;;;;;;15.74;70.18;99820.36;255830;1104;116457;-66
2021/07/19 02:34:44;;;;;;;6.33;5.73;;;;;;;15.70;69.85;99825.46;256594;1104;115357;-66
2021/07/19 02:39:50;;;;;;;9.38;6.43;;;;;;;15.66;69.97;99816.31;256190;1104;115512;-67
2021/07/19 02:44:57;;;;;;;10.48;6.28;;;;;;;15.64;70.66;99820.34;257223;1104;115362;-66
2021/07/19 02:50:04;;;;;;;8.20;5.97;;;;;;;15.63;70.64;99832.16;257068;1103;115226;-66
2021/07/19 02:55:10;;;;;;;15.47;6.70;;;;;;;15.63;70.31;99829.47;257145;1104;117885;-67
2021/07/19 03:00:17;;;;;;;8.43;6.10;;;;;;;15.65;70.64;99828.13;257199;1104;115329;-66
2021/07/19 03:05:28;;;;;;;7.80;6.05;;;;;;;15.64;70.17;99831.89;257205;1104;114977;-66
2021/07/19 03:10:34;;;;;;;12.23;6.43;;;;;;;15.63;71.05;99832.97;257100;1104;115191;-66
2021/07/19 03:15:41;;;;;;;8.23;6.25;;;;;;;15.63;70.79;99830.27;257085;1104;116071;-65
2021/07/19 03:20:47;;;;;;;9.27;6.20;;;;;;;15.67;71.11;99842.11;257245;1104;116890;-66
2021/07/19 03:25:53;;;;;;;9.63;6.70;;;;;;;15.72;70.95;99836.75;257227;1104;115886;-66
2021/07/19 03:30:59;;;;;;;9.25;6.40;;;;;;;15.81;70.77;99845.92;255574;1104;117038;-65
2021/07/19 03:36:04;;;;;;;15.48;6.68;;;;;;;15.90;71.36;99845.41;256651;1104;116977;-66
2021/07/19 03:41:13;;;;;;;9.63;7.58;;;;;;;16.01;71.76;99849.70;255503;1099;116000;-66
2021/07/19 03:46:22;;;;;;;9.35;7.78;;;;;;;16.19;71.66;99845.69;255867;1104;115363;-66
2021/07/19 03:51:29;;;;;;;11.97;6.93;;;;;;;16.39;71.65;99843.80;254984;1099;115003;-66
2021/07/19 03:56:36;;;;;;;13.33;7.75;;;;;;;16.59;71.60;99832.19;255581;1104;115485;-66
2021/07/19 04:01:42;;;;;;;19.53;9.25;;;;;;;16.80;71.53;99839.20;256065;1104;115876;-66
2021/07/19 04:06:48;;;;;;;10.83;8.53;;;;;;;16.98;71.80;99845.87;255996;1104;114606;-66
2021/07/19 04:11:54;;;;;;;10.70;9.40;;;;;;;17.18;71.51;99847.67;255265;1104;115658;-66
2021/07/19 04:16:59;;;;;;;9.95;8.58;;;;;;;17.35;71.28;99834.69;256056;1104;114835;-66
2021/07/19 04:22:05;;;;;;;32.98;9.23;;;;;;;17.49;71.09;99835.68;255877;1104;114740;-67
2021/07/19 04:27:14;;;;;;;11.30;8.50;;;;;;;17.82;70.97;99833.36;254826;1104;115809;-66
2021/07/19 04:32:21;;;;;;;14.33;8.10;;;;;;;18.26;70.43;99838.70;255688;1104;115326;-65
2021/07/19 04:37:26;;;;;;;10.68;8.68;;;;;;;18.74;69.95;99839.63;255474;1104;115657;-66
2021/07/19 04:42:31;;;;;;;12.63;8.38;;;;;;;19.38;68.93;99846.45;253889;1099;115548;-66
2021/07/19 04:47:36;;;;;;;11.65;8.78;;;;;;;19.86;68.36;99853.69;257171;1104;115349;-67
2021/07/19 04:52:41;;;;;;;12.58;8.60;;;;;;;20.17;68.05;99846.72;257173;1104;114814;-68
2021/07/19 04:57:50;;;;;;;12.25;7.25;;;;;;;20.44;67.78;99843.31;257065;1104;115610;-69
2021/07/19 05:02:58;;;;;;;8.50;6.70;;;;;;;20.41;66.90;99850.13;257226;1104;115845;-69
2021/07/19 05:08:05;;;;;;;14.37;8.37;;;;;;;21.22;66.11;99855.16;257202;1104;115353;-70
2021/07/19 05:13:11;;;;;;;;;;;;;;;22.90;63.98;99869.16;257105;1104;115297;-70
2021/07/19 05:18:17;;;;;;;18.78;7.45;;;;;;;24.17;61.89;99859.95;256235;1104;103093;-71
2021/07/19 05:23:25;;;;;;;8.73;7.17;;;;;;;26.43;58.70;99855.77;257100;1104;115758;-69
2021/07/19 05:28:30;;;;;;;14.47;8.03;;;;;;;28.81;55.45;99863.05;257257;1104;115687;-70
2021/07/19 05:33:35;;;;;;;10.23;8.03;;;;;;;30.88;52.41;99863.56;255141;1104;115397;-69
2021/07/19 05:38:41;;;;;;;9.25;6.73;;;;;;;32.48;49.20;99874.88;253914;1104;116555;-67
2021/07/19 05:43:47;;;;;;;7.83;5.83;;;;;;;33.82;46.43;99881.91;255484;1099;116628;-65
2021/07/19 05:48:52;;;;;;;5.00;4.33;;;;;;;35.03;44.29;99883.03;255659;1104;116745;-66
2021/07/19 05:53:57;;;;;;;5.93;5.23;;;;;;;36.05;41.69;99891.58;254032;1103;117039;-65
2021/07/19 05:59:04;;;;;;;6.35;3.98;;;;;;;36.69;39.84;99896.80;254444;1104;116867;-66
2021/07/19 06:04:09;;;;;;;5.73;4.93;;;;;;;37.05;38.19;99898.10;255407;1104;116059;-67
2021/07/19 06:09:14;;;;;;;4.93;4.43;;;;;;;37.27;37.39;99898.75;254758;1100;114848;-67
2021/07/19 06:14:19;;;;;;;6.83;3.68;;;;;;;37.67;35.89;99902.72;253525;1104;115153;-67
2021/07/19 06:19:24;;;;;;;5.18;3.28;;;;;;;37.91;34.26;99902.87;253472;1104;114749;-66
2021/07/19 06:24:28;;;;;;;8.05;3.50;;;;;;;37.99;33.50;99910.69;253468;1104;115526;-67
2021/07/19 06:29:34;;;;;;;4.53;3.73;;;;;;;37.79;33.18;99911.75;253724;1104;116589;-67
2021/07/19 06:34:39;;;;;;;5.23;3.33;;;;;;;37.81;32.97;99912.13;257097;1104;117994;-67
2021/07/19 06:39:44;;;;;;;7.73;5.05;;;;;;;36.84;32.43;99903.84;257206;1104;116004;-67
2021/07/19 06:44:52;;;;;;;5.78;3.50;;;;;;;35.56;33.08;99907.14;256913;1104;116177;-68
2021/07/19 06:49:57;;;;;;;6.80;3.60;;;;;;;33.95;33.76;99910.78;253930;1100;116996;-67
2021/07/19 06:55:04;;;;;;;6.05;4.00;;;;;;;32.48;35.38;99919.02;253792;1104;116568;-66
2021/07/19 07:00:10;;;;;;;9.80;4.00;;;;;;;31.08;36.43;99913.85;257255;1104;114954;-68
2021/07/19 07:05:15;;;;;;;9.58;4.78;;;;;;;30.17;37.10;99900.75;256576;1104;118469;-67
2021/07/19 07:10:21;;;;;;;4.55;4.08;;;;;;;29.80;38.82;99905.81;253659;1104;115998;-68
2021/07/19 07:15:27;;;;;;;7.70;4.58;;;;;;;29.69;38.77;99900.08;253748;1104;115108;-71
2021/07/19 07:20:32;;;;;;;9.20;4.33;;;;;;;29.66;39.48;99902.74;253824;1104;115542;-70
2021/07/19 07:25:36;;;;;;;11.57;4.73;;;;;;;30.52;39.76;99892.40;253826;1104;115573;-69
2021/07/19 07:30:40;;;;;;;10.83;4.70;;;;;;;31.23;39.78;99882.64;256715;1104;120007;-69
2021/07/19 07:35:45;;;;;;;;;;;;;;;31.39;38.62;99880.55;256787;1104;116144;-66
2021/07/19 07:40:51;;;;;;;6.10;4.08;;;;;;;31.43;39.24;99886.11;255092;1104;103014;-68
2021/07/19 07:45:57;;;;;;;8.30;4.88;;;;;;;31.08;38.59;99873.34;255147;1104;114950;-69
2021/07/19 07:51:06;;;;;;;7.18;5.85;;;;;;;30.69;39.14;99871.89;254124;1100;115744;-68
2021/07/19 07:56:11;;;;;;;11.75;7.30;;;;;;;30.13;39.42;99878.67;255254;1104;115024;-69
2021/07/19 08:01:16;;;;;;;12.13;6.68;;;;;;;29.62;40.25;99872.47;254150;1104;114883;-69
2021/07/19 08:06:22;;;;;;;11.10;7.27;;;;;;;29.05;40.07;99875.78;254110;1104;115937;-69
2021/07/19 08:11:28;;;;;;;13.25;6.80;;;;;;;29.33;41.11;99875.70;254619;1104;115635;-68
2021/07/19 08:16:36;;;;;;;11.95;6.33;;;;;;;29.97;40.96;99871.61;254763;1104;115492;-69
2021/07/19 08:21:43;;;;;;;15.50;7.90;;;;;;;30.34;40.59;99870.04;254510;1104;116063;-67
2021/07/19 08:26:48;;;;;;;22.13;8.43;;;;;;;30.00;40.26;99865.42;254527;1104;115426;-68
2021/07/19 08:31:54;;;;;;;8.73;7.48;;;;;;;29.59;40.34;99864.95;254228;1104;116408;-70
2021/07/19 08:37:03;;;;;;;9.05;7.50;;;;;;;29.01;40.31;99862.00;254232;1100;115624;-68
2021/07/19 08:42:14;;;;;;;8.90;7.45;;;;;;;28.59;40.63;99869.91;254462;1100;115669;-69
2021/07/19 08:47:20;;;;;;;10.43;8.35;;;;;;;28.39;41.11;99871.74;255998;1104;115246;-71
2021/07/19 08:52:26;;;;;;;10.13;7.73;;;;;;;28.06;41.90;99860.20;254806;1104;116053;-69
2021/07/19 08:57:32;;;;;;;7.93;6.90;;;;;;;27.93;42.18;99862.18;254245;1104;175046;-68
2021/07/19 09:02:37;;;;;;;9.95;7.88;;;;;;;27.84;42.35;99861.52;257124;1104;114979;-67
2021/07/19 09:07:43;;;;;;;9.93;7.95;;;;;;;27.66;42.90;99854.73;254895;1099;115391;-66
2021/07/19 09:12:48;;;;;;;14.50;7.68;;;;;;;27.64;43.13;99860.55;254296;1104;116140;-67
2021/07/19 09:17:56;;;;;;;13.88;7.75;;;;;;;27.90;43.55;99853.86;254227;1104;115358;-68
2021/07/19 09:23:01;;;;;;;9.05;7.45;;;;;;;28.70;42.84;99851.80;257099;1104;115303;-68
2021/07/19 09:28:08;;;;;;;8.53;7.13;;;;;;;28.54;41.85;99863.88;256939;1100;115216;-69
2021/07/19 09:33:22;;;;;;;7.13;6.43;;;;;;;28.23;41.96;99853.64;254290;1104;115322;-69
2021/07/19 09:38:30;;;;;;;8.70;6.90;;;;;;;27.86;42.15;99855.69;255835;1104;116422;-69
2021/07/19 09:43:35;;;;;;;11.73;6.80;;;;;;;27.51;42.61;99861.70;255482;1104;115701;-69
2021/07/19 09:48:40;;;;;;;14.78;7.10;;;;;;;27.96;43.73;99849.73;254284;1104;116050;-71
2021/07/19 09:53:44;;;;;;;8.05;7.35;;;;;;;27.93;43.50;99842.20;254151;1104;115629;-69
2021/07/19 09:59:11;;;;;;;9.83;5.83;;;;;;;27.84;44.08;99853.30;254251;1104;115526;-68
2021/07/19 10:04:18;;;;;;;7.78;6.58;;;;;;;27.71;43.63;99849.02;254228;1104;116984;-69
2021/07/19 10:09:23;;;;;;;8.47;6.50;;;;;;;27.53;43.90;99847.63;254308;1099;117773;-68
2021/07/19 10:14:35;;;;;;;10.10;7.25;;;;;;;27.78;44.53;99839.07;254508;1104;117550;-69
2021/07/19 10:19:41;;;;;;;8.90;6.50;;;;;;;27.92;44.59;99827.70;254660;1099;115426;-69
2021/07/19 10:24:46;;;;;;;6.78;6.08;;;;;;;27.78;44.09;99819.90;254188;1104;116394;-68
2021/07/19 10:29:52;;;;;;;8.28;6.40;;;;;;;27.53;43.99;99829.27;254296;1104;116189;-68
2021/07/19 10:34:57;;;;;;;8.28;6.40;;;;;;;26.90;43.99;99833.53;254044;1098;115547;-68
2021/07/19 10:40:08;;;;;;;6.03;5.35;;;;;;;26.31;44.38;99825.66;254558;1104;116080;-69
2021/07/19 10:45:17;;;;;;;7.33;5.80;;;;;;;25.72;45.32;99840.29;254169;1104;115615;-68
2021/07/19 10:50:27;;;;;;;7.25;5.63;;;;;;;25.36;46.38;99834.59;254522;1104;114801;-70
2021/07/19 10:55:33;;;;;;;7.68;6.43;;;;;;;25.05;47.08;99833.00;254746;1099;115384;-68
2021/07/19 11:00:41;;;;;;;7.78;5.55;;;;;;;24.92;47.22;99817.63;255570;1104;115088;-68
2021/07/19 11:05:54;;;;;;;4.85;4.45;;;;;;;25.14;47.82;99816.56;254023;1104;116127;-70
2021/07/19 11:10:59;;;;;;;11.28;5.00;;;;;;;26.12;48.69;99812.48;256248;1104;118121;-68
2021/07/19 11:16:16;;;;;;;6.87;4.50;;;;;;;26.87;47.28;99795.92;256412;1104;114953;-68
2021/07/19 11:21:24;;;;;;;4.05;3.10;;;;;;;27.33;45.86;99791.91;257402;1104;115957;-68
2021/07/19 11:26:29;;;;;;;8.23;5.13;;;;;;;27.58;45.00;99785.25;257139;1104;137105;-68
2021/07/19 11:31:34;;;;;;;5.67;5.07;;;;;;;27.68;45.32;99773.81;256948;1104;116934;-69
2021/07/19 11:36:47;;;;;;;4.95;4.45;;;;;;;27.75;43.89;99765.81;255977;1104;115169;-68
2021/07/19 11:42:01;;;;;;;7.18;5.03;;;;;;;27.98;44.19;99767.98;255962;1104;115205;-69
2021/07/19 11:47:07;;;;;;;6.38;4.30;;;;;;;27.89;43.84;99759.11;254682;1099;115257;-68
2021/07/19 11:52:12;;;;;;;7.23;5.10;;;;;;;27.86;43.74;99755.13;254594;1104;115080;-68
2021/07/19 11:57:20;;;;;;;5.75;5.15;;;;;;;28.01;43.85;99750.84;254396;1104;115610;-68
2021/07/19 12:02:26;;;;;;;9.78;5.03;;;;;;;27.40;42.97;99737.38;254248;1104;114839;-68
2021/07/19 12:07:33;;;;;;;5.18;4.73;;;;;;;26.72;43.95;99738.02;254935;1100;115262;-68
2021/07/19 12:12:37;;;;;;;7.33;6.43;;;;;;;26.21;45.06;99750.36;255283;1104;115267;-68
2021/07/19 12:17:43;;;;;;;10.70;6.08;;;;;;;25.62;45.45;99752.52;254449;1104;116060;-68
2021/07/19 12:22:53;;;;;;;10.33;6.88;;;;;;;25.02;46.15;99751.03;254299;1104;116642;-68
2021/07/19 12:28:01;;;;;;;8.68;5.55;;;;;;;24.57;47.21;99756.20;254797;1100;115337;-68
2021/07/19 12:33:06;;;;;;;7.70;5.93;;;;;;;24.27;48.00;99752.62;254617;1104;114974;-68
2021/07/19 12:38:18;;;;;;;9.20;6.17;;;;;;;24.13;49.17;99760.97;254479;1104;115362;-68
2021/07/19 12:43:23;;;;;;;7.98;6.08;;;;;;;24.05;49.42;99754.41;254564;1104;117070;-68
2021/07/19 12:48:30;;;;;;;10.95;6.95;;;;;;;24.15;50.99;99756.00;254561;1104;117777;-68
2021/07/19 12:53:36;;;;;;;6.55;5.83;;;;;;;24.74;50.90;99756.94;255263;1104;116092;-68
2021/07/19 12:59:05;;;;;;;5.33;4.70;;;;;;;24.99;50.11;99757.95;254051;1104;118366;-68
2021/07/19 13:04:13;;;;;;;13.28;6.60;;;;;;;24.91;49.29;99750.58;254140;1104;115979;-68
2021/07/19 13:09:27;;;;;;;8.78;5.98;;;;;;;24.68;49.29;99758.23;254144;1104;115198;-68
2021/07/19 13:14:47;;;;;;;6.27;5.67;;;;;;;24.46;50.16;99756.55;255449;1104;115916;-70
2021/07/19 13:20:03;;;;;;;8.58;6.25;;;;;;;24.33;50.43;99751.32;257095;1104;115384;-68
2021/07/19 13:25:11;;;;;;;6.98;5.50;;;;;;;24.21;51.28;99749.23;257339;1104;115157;-67
2021/07/19 13:30:27;;;;;;;7.43;6.25;;;;;;;24.07;52.56;99751.37;257213;1104;114920;-68
2021/07/19 13:35:43;;;;;;;10.65;6.43;;;;;;;23.84;53.31;99742.61;257084;1104;114511;-68
2021/07/19 13:40:54;;;;;;;6.73;6.03;;;;;;;23.63;53.83;99756.05;257053;1104;115961;-69
2021/07/19 13:46:00;;;;;;;18.57;6.60;;;;;;;23.48;54.22;99745.64;256356;1104;115774;-67
2021/07/19 13:51:05;;;;;;;7.73;5.90;;;;;;;23.31;54.46;99738.25;256265;1104;115446;-68
2021/07/19 13:56:09;;;;;;;6.80;5.53;;;;;;;23.15;55.79;99743.37;254444;1104;115684;-67
2021/07/19 14:01:14;;;;;;;7.23;6.35;;;;;;;23.05;54.87;99740.94;254547;1104;115035;-68
2021/07/19 14:06:20;;;;;;;8.53;6.30;;;;;;;23.04;55.17;99749.41;255413;1104;115411;-68
2021/07/19 14:11:25;;;;;;;9.58;6.55;;;;;;;23.13;55.70;99750.23;254145;1104;114898;-67
2021/07/19 14:16:30;;;;;;;7.75;6.63;;;;;;;23.17;55.50;99738.41;254292;1104;120168;-67
2021/07/19 14:21:36;;;;;;;10.80;7.37;;;;;;;23.13;55.14;99752.95;254849;1104;115441;-67
2021/07/19 14:26:42;;;;;;;8.95;7.05;;;;;;;22.91;55.29;99751.16;254300;1104;114867;-67
2021/07/19 14:31:51;;;;;;;27.90;7.40;;;;;;;22.73;55.92;99744.83;254213;1104;115207;-67
2021/07/19 14:36:56;;;;;;;9.73;6.25;;;;;;;22.60;56.86;99739.52;254611;1104;115113;-66
2021/07/19 14:42:02;;;;;;;9.98;6.63;;;;;;;22.71;57.14;99740.82;254210;1104;114858;-66
2021/07/19 14:47:06;;;;;;;10.10;6.75;;;;;;;22.82;57.68;99739.45;254030;1104;115683;-67
2021/07/19 14:52:25;;;;;;;7.03;5.90;;;;;;;23.05;57.95;99731.98;254912;1104;115583;-67
2021/07/19 14:57:31;;;;;;;8.80;5.97;;;;;;;23.25;57.42;99727.84;254284;1104;115221;-67
2021/07/19 15:02:36;;;;;;;10.40;7.07;;;;;;;23.52;57.51;99722.11;254202;1104;115434;-66
2021/07/19 15:07:41;;;;;;;9.25;6.58;;;;;;;23.60;57.16;99720.52;255319;1104;115524;-67
2021/07/19 15:12:46;;;;;;;7.03;5.85;;;;;;;23.66;57.11;99722.76;254393;1104;115200;-67
2021/07/19 15:17:52;;;;;;;10.93;6.13;;;;;;;23.67;56.53;99720.84;254779;1104;114939;-67
2021/07/19 15:22:58;;;;;;;9.78;6.58;;;;;;;23.72;56.98;99720.67;256419;1104;115497;-68
2021/07/19 15:28:03;;;;;;;10.30;6.93;;;;;;;23.74;57.03;99721.95;254943;1104;115994;-67
2021/07/19 15:33:08;;;;;;;12.73;7.83;;;;;;;23.67;57.15;99718.91;254204;1104;213662;-67
2021/07/19 15:38:14;;;;;;;9.47;6.40;;;;;;;23.63;56.78;99723.40;257115;1104;117354;-67
2021/07/19 15:43:19;;;;;;;12.73;6.63;;;;;;;23.50;56.19;99732.52;257202;1104;114839;-67
2021/07/19 15:48:23;;;;;;;9.45;6.98;;;;;;;23.35;55.71;99730.25;255812;1104;115153;-67
2021/07/19 15:53:27;;;;;;;10.75;7.45;;;;;;;;;;256601;1104;114872;-69
2021/07/19 15:58:32;;;;;;;8.75;6.15;;;;;;;23.16;55.90;99731.38;258085;1099;102975;-67
2021/07/19 16:03:37;;;;;;;;;;;;;;;23.09;56.25;99730.23;254863;1104;116024;-67
2021/07/19 16:08:49;;;;;;;10.10;6.70;;;;;;;22.99;56.75;99728.61;255704;1104;107145;-67
2021/07/19 16:13:53;;;;;;;9.73;6.75;;;;;;;22.90;56.71;99725.09;254376;1104;117037;-67
2021/07/19 16:18:58;;;;;;;12.45;7.80;;;;;;;22.82;57.20;99729.39;254742;1104;117002;-67
2021/07/19 16:24:05;;;;;;;10.77;7.73;;;;;;;22.92;57.78;99722.86;254505;1104;115357;-68
2021/07/19 16:29:10;;;;;;;14.30;7.93;;;;;;;23.04;57.98;99727.66;254776;1104;115685;-68
2021/07/19 16:34:15;;;;;;;8.33;7.38;;;;;;;23.19;57.90;99721.78;254389;1104;115654;-66
2021/07/19 16:39:21;;;;;;;14.60;8.20;;;;;;;23.20;57.49;99720.66;255050;1104;118166;-67
2021/07/19 16:44:28;;;;;;;12.25;7.88;;;;;;;23.06;57.21;99722.71;254190;1104;115764;-67
2021/07/19 16:49:34;;;;;;;13.80;7.77;;;;;;;22.94;57.27;99717.88;254104;1104;115285;-67
2021/07/19 16:54:39;;;;;;;15.08;6.53;;;;;;;22.82;57.24;99734.83;254684;1098;115722;-67
2021/07/19 16:59:44;;;;;;;14.45;7.18;;;;;;;22.68;57.33;99736.81;254487;1104;115561;-67
2021/07/19 17:04:49;;;;;;;15.90;8.88;;;;;;;22.55;58.01;99736.94;254712;1099;115527;-66
2021/07/19 17:09:54;;;;;;;12.13;6.15;;;;;;;22.46;58.60;99745.05;254055;1100;115289;-67
2021/07/19 17:14:59;;;;;;;12.43;7.80;;;;;;;22.33;59.02;99741.30;255406;1104;115570;-67
2021/07/19 17:20:06;;;;;;;11.43;7.30;;;;;;;22.26;59.33;99743.69;254659;1104;115568;-68
2021/07/19 17:25:15;;;;;;;14.03;7.77;;;;;;;22.22;60.09;99748.13;254536;1104;115397;-67
2021/07/19 17:30:23;;;;;;;11.45;7.85;;;;;;;22.17;60.51;99748.27;256754;1104;115997;-67
2021/07/19 17:35:29;;;;;;;11.03;7.45;;;;;;;22.10;60.52;99753.33;255279;1104;115478;-67
2021/07/19 17:40:36;;;;;;;12.60;7.70;;;;;;;22.00;60.55;99751.66;254715;1104;115643;-66
2021/07/19 17:45:41;;;;;;;7.35;6.65;;;;;;;21.89;60.84;99752.20;255092;1104;115371;-65
2021/07/19 17:50:46;;;;;;;15.33;8.90;;;;;;;21.80;61.20;99749.42;257209;1104;115638;-66
2021/07/19 17:55:51;;;;;;;15.50;7.65;;;;;;;21.75;61.04;99749.55;255821;1104;115308;-66
2021/07/19 18:00:56;;;;;;;11.73;6.70;;;;;;;21.71;61.49;99752.06;254207;1104;115726;-65
2021/07/19 18:06:02;;;;;;;11.68;7.43;;;;;;;21.65;62.07;99752.52;255748;1104;115584;-65
2021/07/19 18:11:11;;;;;;;17.17;8.83;;;;;;;21.55;62.19;99750.84;254712;1099;116069;-66
2021/07/19 18:16:16;;;;;;;15.13;6.90;;;;;;;21.45;62.18;99753.77;254959;1104;115428;-67
2021/07/19 18:21:21;;;;;;;11.30;7.33;;;;;;;21.39;62.78;99761.25;256293;1100;116563;-68
2021/07/19 18:31:46;;;;;;;17.98;8.10;;;;;;;21.23;62.79;99762.67;254975;1104;115418;-67
2021/07/19 18:36:55;;;;;;;8.90;7.13;;;;;;;21.10;62.82;99763.45;254242;1104;116569;-67
2021/07/19 18:42:01;;;;;;;11.13;7.00;;;;;;;20.99;62.62;99772.92;255374;1104;114720;-67
2021/07/19 18:47:08;;;;;;;11.13;6.80;;;;;;;20.88;63.35;99772.32;254361;1104;115637;-67
2021/07/19 18:52:19;;;;;;;12.23;7.58;;;;;;;20.78;63.26;99775.25;254848;1104;115963;-68
2021/07/19 18:57:26;;;;;;;10.98;6.50;;;;;;;20.65;63.66;99782.26;254384;1104;115311;-66
2021/07/19 19:02:32;;;;;;;9.28;6.63;;;;;;;20.45;63.89;99786.16;255450;1104;114805;-67
2021/07/19 19:07:37;;;;;;;8.93;6.70;;;;;;;20.33;64.02;99783.09;255356;1104;116217;-66
2021/07/19 19:12:44;;;;;;;11.23;7.80;;;;;;;20.05;63.94;99787.63;255241;1104;115601;-66
2021/07/19 19:17:53;;;;;;;12.95;7.60;;;;;;;19.92;64.33;99788.38;254393;1104;114919;-66
2021/07/19 19:22:59;;;;;;;12.38;7.48;;;;;;;19.84;64.26;99791.77;254569;1104;115284;-66
2021/07/19 19:28:07;;;;;;;8.85;6.75;;;;;;;19.76;64.78;99795.13;254740;1104;115860;-67
2021/07/19 19:33:12;;;;;;;8.48;6.80;;;;;;;19.67;65.00;99797.69;254150;1103;115457;-66
2021/07/19 19:38:22;;;;;;;8.03;6.10;;;;;;;19.61;65.05;99796.14;256687;1104;114620;-66
2021/07/19 19:43:32;;;;;;;10.43;8.37;;;;;;;19.55;65.18;99799.23;254653;1104;115886;-66
2021/07/19 19:48:38;;;;;;;7.07;6.30;;;;;;;19.43;65.28;99802.33;257179;1104;116690;-66
2021/07/19 19:53:43;;;;;;;11.55;7.15;;;;;;;19.30;65.12;99809.25;257113;1104;116952;-68
2021/07/19 19:58:49;;;;;;;16.75;7.45;;;;;;;19.16;65.05;99803.77;255249;1104;114907;-65
2021/07/19 20:03:55;;;;;;;16.63;8.15;;;;;;;19.04;65.22;99806.06;256972;1104;115347;-66
2021/07/19 20:09:00;;;;;;;10.47;6.77;;;;;;;18.91;65.08;99812.18;256335;1104;115603;-67
2021/07/19 20:14:05;;;;;;;10.55;7.53;;;;;;;18.67;65.04;99814.85;254900;1100;115382;-66
2021/07/19 20:19:11;;;;;;;13.08;7.83;;;;;;;18.43;65.46;99817.49;255716;1104;116037;-66
2021/07/19 20:24:16;;;;;;;;;;;;;;;18.25;65.82;99823.61;256163;1104;114944;-65
2021/07/19 20:29:21;;;;;;;11.88;8.55;;;;;;;18.12;66.04;99822.34;256165;1104;103225;-66
2021/07/19 20:34:27;;;;;;;14.43;7.77;;;;;;;17.99;65.94;99817.62;254186;1104;116138;-67
2021/07/19 20:39:34;;;;;;;8.15;7.20;;;;;;;17.67;65.68;99820.00;254790;1104;117263;-65
2021/07/19 20:44:39;;;;;;;10.80;9.10;;;;;;;17.30;66.43;99826.63;254979;1104;116588;-66
2021/07/19 20:49:44;;;;;;;14.00;10.33;;;;;;;17.23;66.87;99826.11;254740;1104;115815;-66
2021/07/19 20:54:54;;;;;;;9.90;8.03;;;;;;;17.10;67.47;99816.75;254434;1104;115608;-66
2021/07/19 21:00:01;;;;;;;11.93;7.48;;;;;;;17.08;67.23;99829.69;254522;1104;116758;-67
2021/07/19 21:05:07;;;;;;;18.00;8.55;;;;;;;17.09;67.77;99828.61;254739;1104;115895;-67
2021/07/19 21:10:15;;;;;;;12.65;7.58;;;;;;;17.08;67.93;99813.53;254628;1104;116401;-67
2021/07/19 21:15:20;;;;;;;15.00;7.28;;;;;;;17.00;67.70;99814.09;255708;1104;115555;-66
2021/07/19 21:20:30;;;;;;;8.33;6.90;;;;;;;16.84;67.61;99826.78;254307;1104;115472;-65
2021/07/19 21:25:34;;;;;;;11.25;7.73;;;;;;;16.71;67.69;99829.25;256107;1104;115866;-67
2021/07/19 21:30:40;;;;;;;11.18;6.70;;;;;;;16.61;67.73;99830.03;255332;1104;114988;-68
2021/07/19 21:35:45;;;;;;;7.63;6.93;;;;;;;16.47;68.10;99821.73;255234;1104;115925;-66
2021/07/19 21:40:51;;;;;;;9.73;6.95;;;;;;;16.31;68.16;99820.13;254477;1104;116013;-66
2021/07/19 21:45:57;;;;;;;7.23;6.25;;;;;;;16.25;68.28;99823.88;256201;1104;116761;-65
2021/07/19 21:51:02;;;;;;;10.33;7.35;;;;;;;16.19;68.90;99824.98;254909;1104;116214;-65
2021/07/19 21:56:09;;;;;;;11.13;6.53;;;;;;;16.18;68.86;99831.44;257315;1104;115859;-66
2021/07/19 22:01:14;;;;;;;9.25;6.33;;;;;;;16.22;69.18;99824.42;254825;1099;115617;-65
2021/07/19 22:06:19;;;;;;;8.88;6.30;;;;;;;16.23;69.26;99828.72;257285;1104;115313;-66
2021/07/19 22:11:23;;;;;;;7.80;6.43;;;;;;;16.25;69.48;99823.88;257299;1104;115137;-66
2021/07/19 22:16:28;;;;;;;8.30;6.93;;;;;;;16.20;69.46;99823.91;257280;1104;114973;-67
2021/07/19 22:21:34;;;;;;;8.13;5.73;;;;;;;16.07;69.24;99822.55;255699;1104;116697;-66
2021/07/19 22:26:40;;;;;;;8.63;6.08;;;;;;;16.02;69.25;99822.55;254233;1104;116540;-66
2021/07/19 22:31:50;;;;;;;6.98;6.28;;;;;;;15.98;69.01;99826.03;256371;1104;115635;-65
2021/07/19 22:36:55;;;;;;;8.38;6.40;;;;;;;15.93;69.34;99831.40;254621;1104;116785;-66
2021/07/19 22:42:00;;;;;;;9.63;6.53;;;;;;;15.79;69.24;99834.63;254630;1104;116105;-66
2021/07/19 22:47:05;;;;;;;10.23;6.90;;;;;;;15.59;68.76;99841.84;255194;1104;115316;-66
2021/07/19 22:52:11;;;;;;;9.48;7.18;;;;;;;15.45;69.11;99838.80;254597;1104;116674;-66
2021/07/19 22:57:17;;;;;;;12.08;6.43;;;;;;;15.38;69.68;99840.92;253991;1104;115601;-66
2021/07/19 23:02:23;;;;;;;8.00;5.88;;;;;;;15.31;69.53;99840.36;255487;1104;116784;-66
2021/07/19 23:07:29;;;;;;;9.33;6.35;;;;;;;15.26;69.84;99841.17;254951;1098;115928;-67
2021/07/19 23:12:34;;;;;;;8.95;5.30;;;;;;;15.20;70.03;99828.78;255933;1099;115762;-68
2021/07/19 23:17:40;;;;;;;7.35;6.10;;;;;;;15.12;69.52;99827.41;255214;1104;116487;-66
2021/07/19 23:22:45;;;;;;;9.58;5.83;;;;;;;14.94;69.54;99830.55;254100;1104;116089;-66
2021/07/19 23:27:56;;;;;;;7.80;5.43;;;;;;;14.87;70.09;99813.88;255515;1104;115991;-67